• Join FlightAware (Why Join?)
  • Login
  • US Flag 
11:04PM EDT


 

Airport Tracker/Info


-or-


 

Live Flight TrackerFlight Track Log ✈ N559LC ✈ 12-Apr-2014 ✈ KDTW - KBCT

Flight Track Log - Related Links

Times and Time Zones

All times are in EDT time to prevent confusion due to time zone crossing. See the N559LC flight status page for this flight to view local times or setup timezone preferences in your user account.

Time Position Orientation Groundspeed Altitude Reporting Facility
EDT Latitude Longitude Course Direction KTS MPH feet Rate Location/Type
10:29AM 42.1947 -83.3514 189° South 157 181 1,500  Level Cleveland Center
10:30AM 42.1308 -83.3650 189° South 198 228 5,900 3,060 Climbing Cleveland Center
10:31AM 42.0831 -83.3642 179° South 239 275 8,000 3,000 Climbing Cleveland Center
10:31AM 42.0556 -83.3628 178° South 270 311 9,300 3,240 Climbing Cleveland Center
10:32AM 41.9914 -83.3581 177° South 282 325 11,400 2,400 Climbing Cleveland Center
10:33AM 41.8917 -83.3533 178° South 349 402 13,700 2,400 Climbing Cleveland Center
10:34AM 41.7958 -83.3475 177° South 361 415 16,400 2,760 Climbing Cleveland Center
10:35AM 41.6697 -83.3414 178° South 393 452 19,500 2,700 Climbing Cleveland Center
10:36AM 41.5525 -83.3389 179° South 416 479 22,000 2,400 Climbing Cleveland Center
10:37AM 41.4397 -83.3831 196° South 421 484 24,500 2,340 Climbing Cleveland Center
10:38AM 41.3314 -83.4478 204° Southwest 423 487 26,900 2,220 Climbing Cleveland Center
10:39AM 41.2208 -83.5119 204° Southwest 431 496 29,100 2,220 Climbing Cleveland Center
10:40AM 41.0822 -83.5542 193° South 461 531 31,500 2,400 Climbing Cleveland Center
10:41AM 40.9414 -83.5642 183° South 468 539 34,100 2,220 Climbing Cleveland Center
10:42AM 40.8139 -83.5719 183° South 460 529 36,200 1,980 Climbing Cleveland Center
10:43AM 40.6858 -83.5819 183° South 461 531 38,300 1,680 Climbing Cleveland Center
10:44AM 40.5839 -83.5881 183° South 461 531 39,400 1,440 Climbing Indianapolis Center
10:45AM 40.4569 -83.5969 183° South 460 529 41,100 1,680 Climbing Indianapolis Center
10:46AM 40.3094 -83.6056 183° South 448 516 42,900 900 Climbing Indianapolis Center
10:47AM 40.1881 -83.6156 184° South 440 506 43,000  Climbing Indianapolis Center
10:48AM 40.0647 -83.6242 183° South 444 511 43,000  Level Indianapolis Center
10:49AM 39.9397 -83.6333 183° South 449 517 43,000  Level Indianapolis Center
10:50AM 39.7894 -83.6436 183° South 460 529 43,000  Level Indianapolis Center
10:51AM 39.6631 -83.6517 183° South 460 529 43,000  Level Indianapolis Center
10:52AM 39.5356 -83.6597 183° South 461 531 43,000  Level Indianapolis Center
10:53AM 39.4083 -83.6692 183° South 460 529 43,000  Level Indianapolis Center
10:54AM 39.2814 -83.6775 183° South 460 529 43,000  Level Indianapolis Center
10:55AM 39.1550 -83.6858 183° South 457 526 43,000  Level Indianapolis Center
10:56AM 39.0008 -83.6958 183° South 458 527 43,000  Level Indianapolis Center
10:57AM 38.8742 -83.7044 183° South 458 527 43,000  Level Indianapolis Center
10:59AM 38.7461 -83.7147 184° South 459 528 43,000  Level Indianapolis Center
11:00AM 38.6200 -83.7219 183° South 458 527 43,000  Level Indianapolis Center
11:01AM 38.4914 -83.7303 183° South 459 528 43,000  Level Indianapolis Center
11:02AM 38.3411 -83.7406 183° South 460 529 43,000  Level Indianapolis Center
11:03AM 38.2128 -83.7494 183° South 460 529 43,000  Level Indianapolis Center
11:04AM 38.0844 -83.7578 183° South 460 529 43,000  Level Indianapolis Center
11:05AM 37.9572 -83.7656 183° South 460 529 43,000  Level Indianapolis Center
11:06AM 37.8294 -83.7736 183° South 460 529 43,000  Level Indianapolis Center
11:07AM 37.6792 -83.7828 183° South 461 531 43,000  Level Indianapolis Center
11:08AM 37.5475 -83.7919 183° South 468 539 43,000  Level Indianapolis Center
11:09AM 37.4169 -83.7994 183° South 469 540 43,000  Level Indianapolis Center
11:10AM 37.2881 -83.8081 183° South 469 540 43,000  Level Indianapolis Center
11:11AM 37.1606 -83.8164 183° South 465 535 43,000  Level Indianapolis Center
11:12AM 37.0106 -83.8267 183° South 464 534 43,000  Level Indianapolis Center
11:13AM 36.8811 -83.8342 183° South 464 534 43,000  Level Indianapolis Center
11:14AM 36.7517 -83.8419 183° South 464 534 43,000  Level Indianapolis Center
11:15AM 36.6211 -83.8503 183° South 465 535 43,000  Level Indianapolis Center
11:16AM 36.4972 -83.8578 183° South 466 536 43,000  Level Indianapolis Center
11:17AM 36.3419 -83.8667 183° South 466 536 43,000  Level Indianapolis Center
11:18AM 36.2139 -83.8739 183° South 464 534 43,000  Level Indianapolis Center
11:19AM 36.1061 -83.8844 185° South 462 532 43,000  Level Atlanta Center
11:20AM 35.9831 -83.8900 182° South 457 526 43,000  Level Atlanta Center
11:21AM 35.8581 -83.9056 186° South 457 526 43,000  Level Atlanta Center
11:22AM 35.7350 -83.9339 191° South 462 532 43,000  Level Atlanta Center
11:23AM 35.6139 -83.9647 192° South 462 532 43,000  Level Atlanta Center
11:24AM 35.4889 -83.9953 191° South 457 526 43,000  Level Atlanta Center
11:25AM 35.3678 -84.0261 192° South 457 526 43,000  Level Atlanta Center
11:26AM 35.2425 -84.0539 190° South 452 520 43,000  Level Atlanta Center
11:27AM 35.1194 -84.0844 191° South 452 520 43,000  Level Atlanta Center
11:28AM 34.9964 -84.1147 191° South 452 520 43,000  Level Atlanta Center
11:29AM 34.8733 -84.1450 191° South 452 520 43,000  Level Atlanta Center
11:30AM 34.7481 -84.1753 191° South 452 520 43,000  Level Atlanta Center
11:31AM 34.6164 -84.2028 190° South 445 512 43,000  Level Atlanta Center
11:32AM 34.4933 -84.2328 191° South 450 518 43,000  Level Atlanta Center
11:33AM 34.3681 -84.2603 190° South 450 518 43,000  Level Atlanta Center
11:34AM 34.2447 -84.2900 191° South 450 518 43,000  Level Atlanta Center
11:35AM 34.1194 -84.3222 192° South 455 524 43,000  Level Atlanta Center
11:36AM 33.9942 -84.3544 192° South 468 539 43,000  Level Atlanta Center
11:37AM 33.8689 -84.3817 190° South 463 533 43,000  Level Atlanta Center
11:38AM 33.7478 -84.4111 191° South 463 533 43,000  Level Atlanta Center
11:39AM 33.6308 -84.4206 184° South 462 532 43,000  Level Atlanta Center
11:40AM 33.4911 -84.3850 168° South 459 528 43,000  Level Atlanta Center
11:41AM 33.3661 -84.3297 160° South 470 541 43,000  Level Atlanta Center
11:42AM 33.2408 -84.2772 161° South 483 556 43,000  Level Atlanta Center
11:43AM 33.1158 -84.2247 161° South 483 556 43,000  Level Atlanta Center
11:44AM 32.9928 -84.1750 161° South 483 556 43,000  Level Atlanta Center
11:45AM 32.8675 -84.1206 160° South 483 556 43,000  Level Atlanta Center
11:46AM 32.7400 -84.0658 160° South 483 556 43,000  Level Atlanta Center
11:47AM 32.6419 -84.0264 161° South 483 556 43,000  Level Atlanta Center
11:48AM 32.4917 -83.9650 161° South 483 556 43,000  Level Atlanta Center
11:49AM 32.3686 -83.9158 161° South 483 556 43,000  Level Atlanta Center
11:50AM 32.2411 -83.8619 160° South 483 556 43,000  Level Atlanta Center
11:51AM 32.1264 -83.8256 165° South 483 556 43,000  Level Atlanta Center
11:52AM 32.0050 -83.7694 159° South 473 544 43,000  Level Atlanta Center
11:53AM 31.8444 -83.6972 159° South 476 548 43,000  Level Jacksonville Center
11:54AM 31.7194 -83.6472 161° South 476 548 43,000  Level Jacksonville Center
11:55AM 31.5736 -83.5925 162° South 493 567 43,000  Level Jacksonville Center
11:56AM 31.4486 -83.5453 162° South 488 562 43,000  Level Jacksonville Center
11:57AM 31.3217 -83.4933 161° South 483 556 43,000  Level Jacksonville Center
11:58AM 31.1986 -83.4464 162° South 477 549 43,000  Level Jacksonville Center
11:59AM 31.0714 -83.3947 161° South 482 555 43,000  Level Jacksonville Center
12:00PM 30.9442 -83.3456 162° South 482 555 43,000  Level Jacksonville Center
12:01PM 30.8442 -83.3064 161° South 482 555 43,000  Level Jacksonville Center
12:02PM 30.7128 -83.2431 157° South 476 548 43,000  Level Jacksonville Center
12:03PM 30.5878 -83.1822 157° South 476 548 43,000  Level Jacksonville Center
12:04PM 30.4647 -83.1217 157° South 476 548 43,000  Level Jacksonville Center
12:05PM 30.3417 -83.0611 157° South 476 548 43,000  Level Jacksonville Center
12:06PM 30.2183 -82.9983 156° South 476 548 43,000  Level Jacksonville Center
12:07PM 30.0975 -82.9358 156° South 476 548 43,000  Level Jacksonville Center
12:08PM 29.9597 -82.8758 159° South 476 548 43,000  Level Jacksonville Center
12:09PM 29.8489 -82.8183 156° South 476 548 43,000  Level Jacksonville Center
12:10PM 29.7300 -82.7586 156° South 476 548 43,000  Level Jacksonville Center
12:11PM 29.6086 -82.6992 157° South 476 548 43,000  Level Jacksonville Center
12:12PM 29.4750 -82.6303 156° South 482 555 43,000  Level Jacksonville Center
12:13PM 29.3517 -82.5708 157° South 482 555 43,000  Level Jacksonville Center
12:14PM 29.2306 -82.5119 157° South 482 555 43,000  Level Jacksonville Center
12:15PM 29.1072 -82.4553 158° South 482 555 43,000 -360 Level Jacksonville Center
12:16PM 28.9775 -82.4297 170° South 472 543 42,300 -1,380 Descending Jacksonville Center
12:17PM 28.8503 -82.4161 175° South 466 536 40,300 -1,680 Descending Jacksonville Center
12:18PM 28.7228 -82.3978 173° South 466 536 39,000 -1,200 Descending Jacksonville Center
12:19PM 28.6122 -82.3842 174° South 455 524 37,900 -1,020 Descending Jacksonville Center
12:20PM 28.4869 -82.3683 174° South 455 524 37,000 -600 Descending Jacksonville Center
12:21PM 28.3594 -82.3525 174° South 455 524 36,800 -1,380 Descending Jacksonville Center
12:23PM 28.1153 -82.3222 174° South 524 603 33,200 -1,380 Descending Miami Center
12:24PM 27.9831 -82.2922 169° South 499 574 33,000 -900 Descending Miami Center
12:25PM 27.8511 -82.2483 164° South 493 567 31,500 -1,920 Descending Miami Center
12:26PM 27.7111 -82.1972 162° South 483 556 29,200 -2,100 Descending Miami Center
12:27PM 27.5875 -82.1539 163° South 478 550 27,300 -1,920 Descending Miami Center
12:28PM 27.4658 -82.1133 164° South 465 535 25,400 -1,680 Descending Miami Center
12:29PM 27.3628 -82.0781 163° South 441 507 24,000 -720 Descending Miami Center
12:30PM 27.2433 -82.0378 163° South 436 502 24,000  Level Miami Center
12:31PM 27.1153 -81.9947 163° South 431 496 24,000  Level Miami Center
12:32PM 27.0225 -81.9628 163° South 431 496 24,000 -120 Level Miami Center
12:33PM 26.8972 -81.9083 159° South 436 502 23,800 -1,200 Descending Miami Center
12:34PM 26.8042 -81.8206 140° Southeast 436 502 21,600 -2,100 Descending Miami Center
12:35PM 26.7369 -81.7108 124° Southeast 429 494 19,700 -1,320 Descending Miami Center
12:36PM 26.7147 -81.5633 100° East 415 478 19,000 -360 Descending Miami Center
12:37PM 26.7356 -81.4339 80° East 414 476 19,000 -360 Level Miami Center
12:38PM 26.7642 -81.3189 74° East 421 484 18,300 -1,440 Descending Miami Center
12:39PM 26.7953 -81.1803 76° East 427 491 16,200 -2,220 Descending Miami Center
12:40PM 26.8156 -81.0647 79° East 403 464 13,900 -2,100 Descending Miami Center
12:41PM 26.8103 -80.9531 93° East 370 426 12,100 -1,800 Descending Miami Center
12:42PM 26.8047 -80.8575 94° East 328 377 10,400 -1,560 Descending Miami Center
12:43PM 26.7839 -80.7800 107° East 294 338 9,000 -1,200 Descending Miami Center
12:44PM 26.7231 -80.7058 133° Southeast 289 333 8,100 -1,200 Descending Miami Center
12:45PM 26.6597 -80.6594 147° Southeast 283 326 6,600 -1,560 Descending Miami Center
12:46PM 26.6156 -80.5908 126° Southeast 272 313 5,000 -900 Descending Miami Center
12:47PM 26.5775 -80.5197 121° Southeast 265 305 4,900 -780 Descending Miami Center
12:48PM 26.5578 -80.4753 116° Southeast 268 308 3,800 -1,620 Descending Miami Center
12:48PM 26.5458 -80.4492 117° Southeast 265 305 3,300 -600 Descending Miami Center
12:49PM 26.5119 -80.3856 121° Southeast 259 298 3,000 -360 Descending Miami Center
12:50PM 26.4742 -80.3100 119° Southeast 259 298 2,600 -480 Descending Miami Center
12:51PM 26.4419 -80.2511 121° Southeast 217 250 2,100 -360 Descending Miami Center
12:52PM 26.4161 -80.2017 120° Southeast 188 216 2,000 -420 Descending Miami Center
12:53PM 26.3667 -80.1725 152° Southeast 156 180 1,300 -600 Descending Miami Center
12:54PM 26.3397 -80.1533 147° Southeast 132 152 800 -600 Descending Miami Center
12:55PM 26.3636 -80.1214 50° Northeast 122 140 200 -600 Descending Miami Center
12:57PM 26.3667 -80.1000 180° South  Level FlightAware Approximate
01:04PM 26.3785 -80.1077 180° South  Level Estimated